sensor_id;sensor_type;location;lat;lon;timestamp;temperature;humidity
48860;DHT22;34679;51.436;-2.518;2022-07-21T00:01:49;17.70;99.90
48860;DHT22;34679;51.436;-2.518;2022-07-21T00:04:16;17.60;99.90
48860;DHT22;34679;51.436;-2.518;2022-07-21T00:06:43;17.50;99.90
48860;DHT22;34679;51.436;-2.518;2022-07-21T00:09:09;17.40;99.90
48860;DHT22;34679;51.436;-2.518;2022-07-21T00:11:36;17.40;99.90
48860;DHT22;34679;51.436;-2.518;2022-07-21T00:14:02;17.20;99.90
48860;DHT22;34679;51.436;-2.518;2022-07-21T00:16:28;17.20;99.90
48860;DHT22;34679;51.436;-2.518;2022-07-21T00:18:54;17.20;99.90
48860;DHT22;34679;51.436;-2.518;2022-07-21T00:21:19;17.20;99.90
48860;DHT22;34679;51.436;-2.518;2022-07-21T00:23:45;17.20;99.90
48860;DHT22;34679;51.436;-2.518;2022-07-21T00:26:11;17.20;99.90
48860;DHT22;34679;51.436;-2.518;2022-07-21T00:28:37;17.10;99.90
48860;DHT22;34679;51.436;-2.518;2022-07-21T00:31:02;17.20;99.90
48860;DHT22;34679;51.436;-2.518;2022-07-21T00:33:28;17.10;99.90
48860;DHT22;34679;51.436;-2.518;2022-07-21T00:35:54;17.10;99.90
48860;DHT22;34679;51.436;-2.518;2022-07-21T00:38:19;17.10;99.90
48860;DHT22;34679;51.436;-2.518;2022-07-21T00:40:45;17.20;99.90
48860;DHT22;34679;51.436;-2.518;2022-07-21T00:43:11;17.20;99.90
48860;DHT22;34679;51.436;-2.518;2022-07-21T00:45:37;17.20;99.90
48860;DHT22;34679;51.436;-2.518;2022-07-21T00:48:03;17.20;99.90
48860;DHT22;34679;51.436;-2.518;2022-07-21T00:50:30;17.30;99.90
48860;DHT22;34679;51.436;-2.518;2022-07-21T00:52:57;17.30;99.90
48860;DHT22;34679;51.436;-2.518;2022-07-21T00:55:23;17.20;99.90
48860;DHT22;34679;51.436;-2.518;2022-07-21T00:57:50;17.30;99.90
48860;DHT22;34679;51.436;-2.518;2022-07-21T01:00:27;17.30;99.90
48860;DHT22;34679;51.436;-2.518;2022-07-21T01:02:55;17.30;99.90
48860;DHT22;34679;51.436;-2.518;2022-07-21T01:05:21;17.30;99.90
48860;DHT22;34679;51.436;-2.518;2022-07-21T01:07:49;17.30;99.90
48860;DHT22;34679;51.436;-2.518;2022-07-21T01:10:17;17.30;99.90
48860;DHT22;34679;51.436;-2.518;2022-07-21T01:12:43;17.20;99.90
48860;DHT22;34679;51.436;-2.518;2022-07-21T01:15:10;17.20;99.90
48860;DHT22;34679;51.436;-2.518;2022-07-21T01:17:37;17.20;99.90
48860;DHT22;34679;51.436;-2.518;2022-07-21T01:20:08;17.20;99.90
48860;DHT22;34679;51.436;-2.518;2022-07-21T01:22:36;17.30;99.90
48860;DHT22;34679;51.436;-2.518;2022-07-21T01:25:04;17.30;99.90
48860;DHT22;34679;51.436;-2.518;2022-07-21T01:27:29;17.30;99.90
48860;DHT22;34679;51.436;-2.518;2022-07-21T01:29:56;17.30;99.90
48860;DHT22;34679;51.436;-2.518;2022-07-21T01:32:23;17.30;99.90
48860;DHT22;34679;51.436;-2.518;2022-07-21T01:34:49;17.20;99.90
48860;DHT22;34679;51.436;-2.518;2022-07-21T01:37:15;17.20;99.90
48860;DHT22;34679;51.436;-2.518;2022-07-21T01:39:47;17.10;99.90
48860;DHT22;34679;51.436;-2.518;2022-07-21T01:42:31;17.10;99.90
48860;DHT22;34679;51.436;-2.518;2022-07-21T01:44:57;17.10;99.90
48860;DHT22;34679;51.436;-2.518;2022-07-21T01:47:23;17.10;99.90
48860;DHT22;34679;51.436;-2.518;2022-07-21T01:49:49;17.10;99.90
48860;DHT22;34679;51.436;-2.518;2022-07-21T01:52:15;17.10;99.90
48860;DHT22;34679;51.436;-2.518;2022-07-21T01:54:41;17.10;99.90
48860;DHT22;34679;51.436;-2.518;2022-07-21T01:57:06;17.10;99.90
48860;DHT22;34679;51.436;-2.518;2022-07-21T01:59:32;17.10;99.90
48860;DHT22;34679;51.436;-2.518;2022-07-21T02:01:58;17.00;99.90
48860;DHT22;34679;51.436;-2.518;2022-07-21T02:04:24;16.90;99.90
48860;DHT22;34679;51.436;-2.518;2022-07-21T02:06:50;16.90;99.90
48860;DHT22;34679;51.436;-2.518;2022-07-21T02:09:16;16.90;99.90
48860;DHT22;34679;51.436;-2.518;2022-07-21T02:11:42;16.80;99.90
48860;DHT22;34679;51.436;-2.518;2022-07-21T02:14:07;16.80;99.90
48860;DHT22;34679;51.436;-2.518;2022-07-21T02:16:33;16.70;99.90
48860;DHT22;34679;51.436;-2.518;2022-07-21T02:18:59;16.70;99.90
48860;DHT22;34679;51.436;-2.518;2022-07-21T02:21:25;16.60;99.90
48860;DHT22;34679;51.436;-2.518;2022-07-21T02:23:51;16.60;99.90
48860;DHT22;34679;51.436;-2.518;2022-07-21T02:26:17;16.60;99.90
48860;DHT22;34679;51.436;-2.518;2022-07-21T02:28:43;16.50;99.90
48860;DHT22;34679;51.436;-2.518;2022-07-21T02:31:09;16.50;99.90
48860;DHT22;34679;51.436;-2.518;2022-07-21T02:33:35;16.50;99.90
48860;DHT22;34679;51.436;-2.518;2022-07-21T02:36:01;16.50;99.90
48860;DHT22;34679;51.436;-2.518;2022-07-21T02:38:26;16.40;99.90
48860;DHT22;34679;51.436;-2.518;2022-07-21T02:40:52;16.40;99.90
48860;DHT22;34679;51.436;-2.518;2022-07-21T02:43:18;16.40;99.90
48860;DHT22;34679;51.436;-2.518;2022-07-21T02:45:44;16.40;99.90
48860;DHT22;34679;51.436;-2.518;2022-07-21T02:48:11;16.40;99.90
48860;DHT22;34679;51.436;-2.518;2022-07-21T02:50:40;16.40;99.90
48860;DHT22;34679;51.436;-2.518;2022-07-21T02:53:18;16.30;99.90
48860;DHT22;34679;51.436;-2.518;2022-07-21T02:55:45;16.30;99.90
48860;DHT22;34679;51.436;-2.518;2022-07-21T02:58:16;16.20;99.90
48860;DHT22;34679;51.436;-2.518;2022-07-21T03:01:10;16.10;99.90
48860;DHT22;34679;51.436;-2.518;2022-07-21T03:03:36;16.10;99.90
48860;DHT22;34679;51.436;-2.518;2022-07-21T03:06:02;16.10;99.90
48860;DHT22;34679;51.436;-2.518;2022-07-21T03:08:29;16.00;99.90
48860;DHT22;34679;51.436;-2.518;2022-07-21T03:10:55;16.00;99.90
48860;DHT22;34679;51.436;-2.518;2022-07-21T03:13:21;16.00;99.90
48860;DHT22;34679;51.436;-2.518;2022-07-21T03:15:47;15.90;99.90
48860;DHT22;34679;51.436;-2.518;2022-07-21T03:18:13;15.90;99.90
48860;DHT22;34679;51.436;-2.518;2022-07-21T03:20:41;15.90;99.90
48860;DHT22;34679;51.436;-2.518;2022-07-21T03:23:07;15.90;99.90
48860;DHT22;34679;51.436;-2.518;2022-07-21T03:25:33;15.80;99.90
48860;DHT22;34679;51.436;-2.518;2022-07-21T03:27:59;15.80;99.90
48860;DHT22;34679;51.436;-2.518;2022-07-21T03:30:25;15.70;99.90
48860;DHT22;34679;51.436;-2.518;2022-07-21T03:32:52;15.60;99.90
48860;DHT22;34679;51.436;-2.518;2022-07-21T03:35:18;15.60;99.90
48860;DHT22;34679;51.436;-2.518;2022-07-21T03:37:47;15.60;99.90
48860;DHT22;34679;51.436;-2.518;2022-07-21T03:40:15;15.60;99.90
48860;DHT22;34679;51.436;-2.518;2022-07-21T03:42:42;15.50;99.90
48860;DHT22;34679;51.436;-2.518;2022-07-21T03:45:09;15.50;99.90
48860;DHT22;34679;51.436;-2.518;2022-07-21T03:47:35;15.40;99.90
48860;DHT22;34679;51.436;-2.518;2022-07-21T03:50:01;15.40;99.90
48860;DHT22;34679;51.436;-2.518;2022-07-21T03:52:27;15.40;99.90
48860;DHT22;34679;51.436;-2.518;2022-07-21T03:54:53;15.30;99.90
48860;DHT22;34679;51.436;-2.518;2022-07-21T04:00:36;15.30;99.90
48860;DHT22;34679;51.436;-2.518;2022-07-21T04:03:03;15.20;99.90
48860;DHT22;34679;51.436;-2.518;2022-07-21T04:05:29;15.20;99.90
48860;DHT22;34679;51.436;-2.518;2022-07-21T04:07:56;15.20;99.90
48860;DHT22;34679;51.436;-2.518;2022-07-21T04:10:24;15.10;99.90
48860;DHT22;34679;51.436;-2.518;2022-07-21T04:12:50;15.10;99.90
48860;DHT22;34679;51.436;-2.518;2022-07-21T04:15:17;15.10;99.90
48860;DHT22;34679;51.436;-2.518;2022-07-21T04:17:43;15.10;99.90
48860;DHT22;34679;51.436;-2.518;2022-07-21T04:20:11;15.00;99.90
48860;DHT22;34679;51.436;-2.518;2022-07-21T04:22:37;15.00;99.90
48860;DHT22;34679;51.436;-2.518;2022-07-21T04:25:04;15.00;99.90
48860;DHT22;34679;51.436;-2.518;2022-07-21T04:27:30;14.90;99.90
48860;DHT22;34679;51.436;-2.518;2022-07-21T04:29:56;15.00;99.90
48860;DHT22;34679;51.436;-2.518;2022-07-21T04:32:22;15.00;99.90
48860;DHT22;34679;51.436;-2.518;2022-07-21T04:34:48;15.00;99.90
48860;DHT22;34679;51.436;-2.518;2022-07-21T04:37:14;15.00;99.90
48860;DHT22;34679;51.436;-2.518;2022-07-21T04:39:40;15.00;99.90
48860;DHT22;34679;51.436;-2.518;2022-07-21T04:42:06;15.00;99.90
48860;DHT22;34679;51.436;-2.518;2022-07-21T04:44:31;15.00;99.90
48860;DHT22;34679;51.436;-2.518;2022-07-21T04:46:57;15.00;99.90
48860;DHT22;34679;51.436;-2.518;2022-07-21T04:49:23;15.10;99.90
48860;DHT22;34679;51.436;-2.518;2022-07-21T04:51:49;15.10;99.90
48860;DHT22;34679;51.436;-2.518;2022-07-21T04:54:14;15.40;99.90
48860;DHT22;34679;51.436;-2.518;2022-07-21T04:56:41;15.80;99.90
48860;DHT22;34679;51.436;-2.518;2022-07-21T04:59:08;16.20;99.90
48860;DHT22;34679;51.436;-2.518;2022-07-21T05:01:34;16.50;99.90
48860;DHT22;34679;51.436;-2.518;2022-07-21T05:04:00;17.00;99.90
48860;DHT22;34679;51.436;-2.518;2022-07-21T05:06:25;17.40;99.90
48860;DHT22;34679;51.436;-2.518;2022-07-21T05:08:51;17.60;99.90
48860;DHT22;34679;51.436;-2.518;2022-07-21T05:11:17;17.80;99.90
48860;DHT22;34679;51.436;-2.518;2022-07-21T05:13:42;18.20;99.90
48860;DHT22;34679;51.436;-2.518;2022-07-21T05:16:08;18.60;99.90
48860;DHT22;34679;51.436;-2.518;2022-07-21T05:18:34;18.70;99.90
48860;DHT22;34679;51.436;-2.518;2022-07-21T05:21:00;19.00;99.90
48860;DHT22;34679;51.436;-2.518;2022-07-21T05:23:25;19.30;99.90
48860;DHT22;34679;51.436;-2.518;2022-07-21T05:25:51;19.70;99.90
48860;DHT22;34679;51.436;-2.518;2022-07-21T05:28:17;20.20;99.90
48860;DHT22;34679;51.436;-2.518;2022-07-21T05:30:43;20.30;99.90
48860;DHT22;34679;51.436;-2.518;2022-07-21T05:33:08;20.60;99.90
48860;DHT22;34679;51.436;-2.518;2022-07-21T05:35:34;21.20;99.30
48860;DHT22;34679;51.436;-2.518;2022-07-21T05:38:00;21.50;98.60
48860;DHT22;34679;51.436;-2.518;2022-07-21T05:40:25;21.50;98.10
48860;DHT22;34679;51.436;-2.518;2022-07-21T05:42:51;21.90;99.20
48860;DHT22;34679;51.436;-2.518;2022-07-21T05:45:17;22.10;97.70
48860;DHT22;34679;51.436;-2.518;2022-07-21T05:47:43;22.60;97.60
48860;DHT22;34679;51.436;-2.518;2022-07-21T05:50:10;22.90;96.80
48860;DHT22;34679;51.436;-2.518;2022-07-21T05:52:36;22.90;95.90
48860;DHT22;34679;51.436;-2.518;2022-07-21T05:55:02;22.50;96.30
48860;DHT22;34679;51.436;-2.518;2022-07-21T05:57:28;21.90;96.50
48860;DHT22;34679;51.436;-2.518;2022-07-21T05:59:53;21.90;96.80
48860;DHT22;34679;51.436;-2.518;2022-07-21T06:02:19;21.20;97.90
48860;DHT22;34679;51.436;-2.518;2022-07-21T06:04:45;21.00;98.50
48860;DHT22;34679;51.436;-2.518;2022-07-21T06:07:10;20.90;98.30
48860;DHT22;34679;51.436;-2.518;2022-07-21T06:09:36;20.40;98.60
48860;DHT22;34679;51.436;-2.518;2022-07-21T06:12:02;19.90;99.20
48860;DHT22;34679;51.436;-2.518;2022-07-21T06:14:28;19.50;99.90
48860;DHT22;34679;51.436;-2.518;2022-07-21T06:16:54;19.50;99.90
48860;DHT22;34679;51.436;-2.518;2022-07-21T06:19:20;19.70;99.90
48860;DHT22;34679;51.436;-2.518;2022-07-21T06:21:45;19.80;99.90
48860;DHT22;34679;51.436;-2.518;2022-07-21T06:24:12;19.70;99.90
48860;DHT22;34679;51.436;-2.518;2022-07-21T06:26:38;19.70;99.90
48860;DHT22;34679;51.436;-2.518;2022-07-21T06:29:06;19.70;99.90
48860;DHT22;34679;51.436;-2.518;2022-07-21T06:31:33;19.60;99.90
48860;DHT22;34679;51.436;-2.518;2022-07-21T06:33:59;19.40;99.90
48860;DHT22;34679;51.436;-2.518;2022-07-21T06:36:24;19.50;99.90
48860;DHT22;34679;51.436;-2.518;2022-07-21T06:38:50;19.30;99.90
48860;DHT22;34679;51.436;-2.518;2022-07-21T06:41:16;19.00;99.90
48860;DHT22;34679;51.436;-2.518;2022-07-21T06:43:42;18.60;99.90
48860;DHT22;34679;51.436;-2.518;2022-07-21T06:46:07;18.50;99.90
48860;DHT22;34679;51.436;-2.518;2022-07-21T06:48:33;18.40;99.90
48860;DHT22;34679;51.436;-2.518;2022-07-21T06:50:59;18.70;99.90
48860;DHT22;34679;51.436;-2.518;2022-07-21T06:53:26;19.10;99.90
48860;DHT22;34679;51.436;-2.518;2022-07-21T06:55:52;20.40;99.90
48860;DHT22;34679;51.436;-2.518;2022-07-21T06:58:21;21.50;98.50
48860;DHT22;34679;51.436;-2.518;2022-07-21T07:00:48;22.00;97.10
48860;DHT22;34679;51.436;-2.518;2022-07-21T07:03:14;23.10;96.20
48860;DHT22;34679;51.436;-2.518;2022-07-21T07:05:41;23.60;95.10
48860;DHT22;34679;51.436;-2.518;2022-07-21T07:08:07;25.10;94.10
48860;DHT22;34679;51.436;-2.518;2022-07-21T07:10:33;25.40;93.30
48860;DHT22;34679;51.436;-2.518;2022-07-21T07:12:59;24.90;93.50
48860;DHT22;34679;51.436;-2.518;2022-07-21T07:15:26;24.10;94.20
48860;DHT22;34679;51.436;-2.518;2022-07-21T07:17:52;23.80;94.50
48860;DHT22;34679;51.436;-2.518;2022-07-21T07:20:18;24.60;93.90
48860;DHT22;34679;51.436;-2.518;2022-07-21T07:22:44;24.30;93.70
48860;DHT22;34679;51.436;-2.518;2022-07-21T07:25:10;23.90;94.10
48860;DHT22;34679;51.436;-2.518;2022-07-21T07:27:36;24.00;94.40
48860;DHT22;34679;51.436;-2.518;2022-07-21T07:30:03;23.20;94.40
48860;DHT22;34679;51.436;-2.518;2022-07-21T07:32:29;23.70;94.40
48860;DHT22;34679;51.436;-2.518;2022-07-21T07:34:55;24.70;93.50
48860;DHT22;34679;51.436;-2.518;2022-07-21T07:37:20;24.50;93.80
48860;DHT22;34679;51.436;-2.518;2022-07-21T07:39:46;25.20;93.00
48860;DHT22;34679;51.436;-2.518;2022-07-21T07:42:12;23.60;94.20
48860;DHT22;34679;51.436;-2.518;2022-07-21T07:44:38;22.80;95.50
48860;DHT22;34679;51.436;-2.518;2022-07-21T07:47:04;23.10;95.10
48860;DHT22;34679;51.436;-2.518;2022-07-21T07:49:30;24.10;94.40
48860;DHT22;34679;51.436;-2.518;2022-07-21T07:51:57;25.00;93.60
48860;DHT22;34679;51.436;-2.518;2022-07-21T07:54:23;25.10;93.50
48860;DHT22;34679;51.436;-2.518;2022-07-21T07:56:49;25.50;92.90
48860;DHT22;34679;51.436;-2.518;2022-07-21T07:59:15;25.40;93.20
48860;DHT22;34679;51.436;-2.518;2022-07-21T08:01:41;26.10;92.40
48860;DHT22;34679;51.436;-2.518;2022-07-21T08:04:07;25.80;92.50
48860;DHT22;34679;51.436;-2.518;2022-07-21T08:06:35;25.90;92.30
48860;DHT22;34679;51.436;-2.518;2022-07-21T08:09:02;26.10;92.20
48860;DHT22;34679;51.436;-2.518;2022-07-21T08:11:28;25.90;92.20
48860;DHT22;34679;51.436;-2.518;2022-07-21T08:13:54;24.90;92.90
48860;DHT22;34679;51.436;-2.518;2022-07-21T08:16:20;26.50;92.30
48860;DHT22;34679;51.436;-2.518;2022-07-21T08:18:45;25.70;92.30
48860;DHT22;34679;51.436;-2.518;2022-07-21T08:21:11;25.50;92.50
48860;DHT22;34679;51.436;-2.518;2022-07-21T08:23:37;25.10;93.00
48860;DHT22;34679;51.436;-2.518;2022-07-21T08:26:04;24.70;93.30
48860;DHT22;34679;51.436;-2.518;2022-07-21T08:28:29;24.10;93.80
48860;DHT22;34679;51.436;-2.518;2022-07-21T08:30:55;24.20;93.80
48860;DHT22;34679;51.436;-2.518;2022-07-21T08:33:21;23.80;94.50
48860;DHT22;34679;51.436;-2.518;2022-07-21T08:35:47;23.30;94.50
48860;DHT22;34679;51.436;-2.518;2022-07-21T08:38:14;22.40;95.50
48860;DHT22;34679;51.436;-2.518;2022-07-21T08:40:42;22.70;95.60
48860;DHT22;34679;51.436;-2.518;2022-07-21T08:43:09;22.40;95.80
48860;DHT22;34679;51.436;-2.518;2022-07-21T08:45:36;22.30;96.00
48860;DHT22;34679;51.436;-2.518;2022-07-21T08:48:05;21.80;96.60
48860;DHT22;34679;51.436;-2.518;2022-07-21T08:50:34;22.10;96.80
48860;DHT22;34679;51.436;-2.518;2022-07-21T08:53:00;22.30;96.50
48860;DHT22;34679;51.436;-2.518;2022-07-21T08:55:35;22.30;96.10
48860;DHT22;34679;51.436;-2.518;2022-07-21T08:58:01;21.90;96.90
48860;DHT22;34679;51.436;-2.518;2022-07-21T09:00:29;22.10;96.80
48860;DHT22;34679;51.436;-2.518;2022-07-21T09:03:18;21.60;97.20
48860;DHT22;34679;51.436;-2.518;2022-07-21T09:08:33;22.60;96.40
48860;DHT22;34679;51.436;-2.518;2022-07-21T09:14:03;23.40;95.80
48860;DHT22;34679;51.436;-2.518;2022-07-21T09:16:50;23.70;95.20
48860;DHT22;34679;51.436;-2.518;2022-07-21T09:19:22;24.60;94.20
48860;DHT22;34679;51.436;-2.518;2022-07-21T09:21:51;25.40;93.90
48860;DHT22;34679;51.436;-2.518;2022-07-21T09:27:14;24.80;94.20
48860;DHT22;34679;51.436;-2.518;2022-07-21T09:29:52;24.70;94.30
48860;DHT22;34679;51.436;-2.518;2022-07-21T09:32:25;25.30;93.70
48860;DHT22;34679;51.436;-2.518;2022-07-21T09:34:54;25.90;93.30
48860;DHT22;34679;51.436;-2.518;2022-07-21T09:37:21;26.30;93.20
48860;DHT22;34679;51.436;-2.518;2022-07-21T09:39:54;27.40;92.10
48860;DHT22;34679;51.436;-2.518;2022-07-21T09:42:33;26.60;92.30
48860;DHT22;34679;51.436;-2.518;2022-07-21T09:45:06;26.40;92.80
48860;DHT22;34679;51.436;-2.518;2022-07-21T09:47:33;27.60;92.20
48860;DHT22;34679;51.436;-2.518;2022-07-21T09:50:00;28.50;91.40
48860;DHT22;34679;51.436;-2.518;2022-07-21T09:52:32;28.20;91.60
48860;DHT22;34679;51.436;-2.518;2022-07-21T09:55:01;28.90;91.20
48860;DHT22;34679;51.436;-2.518;2022-07-21T09:57:28;28.60;90.90
48860;DHT22;34679;51.436;-2.518;2022-07-21T09:59:54;28.20;91.00
48860;DHT22;34679;51.436;-2.518;2022-07-21T10:02:26;28.20;91.00
48860;DHT22;34679;51.436;-2.518;2022-07-21T10:05:00;28.20;91.40
48860;DHT22;34679;51.436;-2.518;2022-07-21T10:07:28;28.60;90.90
48860;DHT22;34679;51.436;-2.518;2022-07-21T10:09:55;28.60;90.60
48860;DHT22;34679;51.436;-2.518;2022-07-21T10:12:22;28.70;90.80
48860;DHT22;34679;51.436;-2.518;2022-07-21T10:14:48;28.50;91.00
48860;DHT22;34679;51.436;-2.518;2022-07-21T10:17:16;28.20;91.00
48860;DHT22;34679;51.436;-2.518;2022-07-21T10:25:35;28.50;90.80
48860;DHT22;34679;51.436;-2.518;2022-07-21T10:30:42;28.30;90.90
48860;DHT22;34679;51.436;-2.518;2022-07-21T10:33:08;28.20;90.90
48860;DHT22;34679;51.436;-2.518;2022-07-21T10:35:39;28.00;90.90
48860;DHT22;34679;51.436;-2.518;2022-07-21T10:38:05;27.10;91.50
48860;DHT22;34679;51.436;-2.518;2022-07-21T10:45:31;25.40;93.00
48860;DHT22;34679;51.436;-2.518;2022-07-21T10:47:58;25.20;93.60
48860;DHT22;34679;51.436;-2.518;2022-07-21T10:50:31;25.50;93.60
48860;DHT22;34679;51.436;-2.518;2022-07-21T10:52:59;25.90;93.10
48860;DHT22;34679;51.436;-2.518;2022-07-21T10:55:27;26.40;93.20
48860;DHT22;34679;51.436;-2.518;2022-07-21T11:00:59;25.60;93.40
48860;DHT22;34679;51.436;-2.518;2022-07-21T11:03:36;25.30;93.40
48860;DHT22;34679;51.436;-2.518;2022-07-21T11:08:40;25.80;93.50
48860;DHT22;34679;51.436;-2.518;2022-07-21T11:11:16;26.30;93.20
48860;DHT22;34679;51.436;-2.518;2022-07-21T11:13:58;26.10;93.00
48860;DHT22;34679;51.436;-2.518;2022-07-21T11:22:27;26.20;92.90
48860;DHT22;34679;51.436;-2.518;2022-07-21T11:25:03;25.70;93.10
48860;DHT22;34679;51.436;-2.518;2022-07-21T11:27:34;25.40;93.40
48860;DHT22;34679;51.436;-2.518;2022-07-21T11:30:05;25.30;93.40
48860;DHT22;34679;51.436;-2.518;2022-07-21T11:32:31;25.10;93.90
48860;DHT22;34679;51.436;-2.518;2022-07-21T11:35:00;25.30;93.90
48860;DHT22;34679;51.436;-2.518;2022-07-21T11:37:34;25.50;93.40
48860;DHT22;34679;51.436;-2.518;2022-07-21T11:40:01;25.10;93.70
48860;DHT22;34679;51.436;-2.518;2022-07-21T11:42:28;25.50;93.50
48860;DHT22;34679;51.436;-2.518;2022-07-21T11:44:56;25.60;93.30
48860;DHT22;34679;51.436;-2.518;2022-07-21T11:47:25;25.40;93.40
48860;DHT22;34679;51.436;-2.518;2022-07-21T11:49:55;24.90;94.00
48860;DHT22;34679;51.436;-2.518;2022-07-21T11:52:30;24.10;94.80
48860;DHT22;34679;51.436;-2.518;2022-07-21T11:54:57;24.10;95.20
48860;DHT22;34679;51.436;-2.518;2022-07-21T11:57:24;24.50;94.90
48860;DHT22;34679;51.436;-2.518;2022-07-21T11:59:52;25.10;94.20
48860;DHT22;34679;51.436;-2.518;2022-07-21T12:04:47;25.00;94.50
48860;DHT22;34679;51.436;-2.518;2022-07-21T12:07:24;25.20;94.40
48860;DHT22;34679;51.436;-2.518;2022-07-21T12:09:57;25.20;94.10
48860;DHT22;34679;51.436;-2.518;2022-07-21T12:12:33;25.30;94.20
48860;DHT22;34679;51.436;-2.518;2022-07-21T12:15:23;25.20;94.20
48860;DHT22;34679;51.436;-2.518;2022-07-21T12:17:54;25.50;93.90
48860;DHT22;34679;51.436;-2.518;2022-07-21T12:22:52;25.70;94.00
48860;DHT22;34679;51.436;-2.518;2022-07-21T12:25:33;25.90;93.50
48860;DHT22;34679;51.436;-2.518;2022-07-21T12:28:00;25.80;93.50
48860;DHT22;34679;51.436;-2.518;2022-07-21T12:30:48;26.20;93.50
48860;DHT22;34679;51.436;-2.518;2022-07-21T12:33:27;25.90;93.60
48860;DHT22;34679;51.436;-2.518;2022-07-21T12:36:01;26.00;93.60
48860;DHT22;34679;51.436;-2.518;2022-07-21T12:38:41;25.40;93.80
48860;DHT22;34679;51.436;-2.518;2022-07-21T12:41:09;25.20;94.00
48860;DHT22;34679;51.436;-2.518;2022-07-21T12:43:35;25.20;94.60
48860;DHT22;34679;51.436;-2.518;2022-07-21T12:46:04;24.90;94.60
48860;DHT22;34679;51.436;-2.518;2022-07-21T12:48:35;24.90;94.80
48860;DHT22;34679;51.436;-2.518;2022-07-21T12:53:46;24.10;95.70
48860;DHT22;34679;51.436;-2.518;2022-07-21T12:56:17;24.00;95.70
48860;DHT22;34679;51.436;-2.518;2022-07-21T12:58:44;24.10;95.70
48860;DHT22;34679;51.436;-2.518;2022-07-21T13:01:10;24.30;95.50
48860;DHT22;34679;51.436;-2.518;2022-07-21T13:03:37;24.30;95.50
48860;DHT22;34679;51.436;-2.518;2022-07-21T13:06:05;24.30;95.50
48860;DHT22;34679;51.436;-2.518;2022-07-21T13:08:32;24.40;95.50
48860;DHT22;34679;51.436;-2.518;2022-07-21T13:10:58;24.10;95.70
48860;DHT22;34679;51.436;-2.518;2022-07-21T13:13:25;24.20;95.70
48860;DHT22;34679;51.436;-2.518;2022-07-21T13:15:52;24.20;95.80
48860;DHT22;34679;51.436;-2.518;2022-07-21T13:18:17;24.60;95.50
48860;DHT22;34679;51.436;-2.518;2022-07-21T13:20:43;24.70;95.10
48860;DHT22;34679;51.436;-2.518;2022-07-21T13:23:09;24.80;95.10
48860;DHT22;34679;51.436;-2.518;2022-07-21T13:25:35;24.70;95.30
48860;DHT22;34679;51.436;-2.518;2022-07-21T13:28:02;24.70;95.30
48860;DHT22;34679;51.436;-2.518;2022-07-21T13:30:28;24.80;94.90
48860;DHT22;34679;51.436;-2.518;2022-07-21T13:32:54;24.70;95.20
48860;DHT22;34679;51.436;-2.518;2022-07-21T13:35:19;25.10;95.00
48860;DHT22;34679;51.436;-2.518;2022-07-21T13:37:45;25.60;94.30
48860;DHT22;34679;51.436;-2.518;2022-07-21T13:40:11;25.70;94.00
48860;DHT22;34679;51.436;-2.518;2022-07-21T13:42:37;25.20;94.20
48860;DHT22;34679;51.436;-2.518;2022-07-21T13:45:04;25.30;94.30
48860;DHT22;34679;51.436;-2.518;2022-07-21T13:47:30;25.70;94.60
48860;DHT22;34679;51.436;-2.518;2022-07-21T13:49:55;25.90;93.90
48860;DHT22;34679;51.436;-2.518;2022-07-21T13:52:21;25.70;93.70
48860;DHT22;34679;51.436;-2.518;2022-07-21T13:54:47;25.70;93.70
48860;DHT22;34679;51.436;-2.518;2022-07-21T13:57:12;25.90;93.80
48860;DHT22;34679;51.436;-2.518;2022-07-21T13:59:38;25.90;94.20
48860;DHT22;34679;51.436;-2.518;2022-07-21T14:02:04;25.80;94.20
48860;DHT22;34679;51.436;-2.518;2022-07-21T14:04:30;25.80;94.20
48860;DHT22;34679;51.436;-2.518;2022-07-21T14:06:55;25.50;94.30
48860;DHT22;34679;51.436;-2.518;2022-07-21T14:09:21;25.40;94.60
48860;DHT22;34679;51.436;-2.518;2022-07-21T14:11:48;25.00;94.90
48860;DHT22;34679;51.436;-2.518;2022-07-21T14:14:13;25.30;94.80
48860;DHT22;34679;51.436;-2.518;2022-07-21T14:16:46;25.10;94.80
48860;DHT22;34679;51.436;-2.518;2022-07-21T14:19:11;25.20;94.80
48860;DHT22;34679;51.436;-2.518;2022-07-21T14:21:38;25.10;95.00
48860;DHT22;34679;51.436;-2.518;2022-07-21T14:24:04;25.10;94.90
48860;DHT22;34679;51.436;-2.518;2022-07-21T14:26:48;24.80;95.00
48860;DHT22;34679;51.436;-2.518;2022-07-21T14:29:14;24.30;95.40
48860;DHT22;34679;51.436;-2.518;2022-07-21T14:31:40;24.20;95.80
48860;DHT22;34679;51.436;-2.518;2022-07-21T14:34:06;24.50;96.10
48860;DHT22;34679;51.436;-2.518;2022-07-21T14:36:31;24.90;95.00
48860;DHT22;34679;51.436;-2.518;2022-07-21T14:38:57;24.90;95.20
48860;DHT22;34679;51.436;-2.518;2022-07-21T14:41:23;25.00;95.00
48860;DHT22;34679;51.436;-2.518;2022-07-21T14:43:48;24.90;94.90
48860;DHT22;34679;51.436;-2.518;2022-07-21T14:46:15;24.70;95.10
48860;DHT22;34679;51.436;-2.518;2022-07-21T14:48:41;24.70;95.30
48860;DHT22;34679;51.436;-2.518;2022-07-21T14:51:06;24.30;95.20
48860;DHT22;34679;51.436;-2.518;2022-07-21T14:53:32;24.10;95.60
48860;DHT22;34679;51.436;-2.518;2022-07-21T14:55:58;24.40;95.70
48860;DHT22;34679;51.436;-2.518;2022-07-21T14:58:23;24.70;95.20
48860;DHT22;34679;51.436;-2.518;2022-07-21T15:00:49;24.50;95.30
48860;DHT22;34679;51.436;-2.518;2022-07-21T15:03:15;24.70;95.10
48860;DHT22;34679;51.436;-2.518;2022-07-21T15:05:41;24.70;95.00
48860;DHT22;34679;51.436;-2.518;2022-07-21T15:08:08;24.80;95.20
48860;DHT22;34679;51.436;-2.518;2022-07-21T15:10:34;24.70;95.60
48860;DHT22;34679;51.436;-2.518;2022-07-21T15:13:00;24.70;95.80
48860;DHT22;34679;51.436;-2.518;2022-07-21T15:15:25;24.60;95.80
48860;DHT22;34679;51.436;-2.518;2022-07-21T15:17:51;24.60;95.70
48860;DHT22;34679;51.436;-2.518;2022-07-21T15:20:17;24.70;95.80
48860;DHT22;34679;51.436;-2.518;2022-07-21T15:22:43;24.80;95.70
48860;DHT22;34679;51.436;-2.518;2022-07-21T15:25:09;24.80;95.90
48860;DHT22;34679;51.436;-2.518;2022-07-21T15:27:41;24.80;95.60
48860;DHT22;34679;51.436;-2.518;2022-07-21T15:30:09;24.90;95.60
48860;DHT22;34679;51.436;-2.518;2022-07-21T15:32:35;24.80;95.70
48860;DHT22;34679;51.436;-2.518;2022-07-21T15:35:00;24.80;95.60
48860;DHT22;34679;51.436;-2.518;2022-07-21T15:37:26;24.90;95.40
48860;DHT22;34679;51.436;-2.518;2022-07-21T15:39:52;24.80;95.40
48860;DHT22;34679;51.436;-2.518;2022-07-21T15:42:18;24.90;95.60
48860;DHT22;34679;51.436;-2.518;2022-07-21T15:44:43;24.90;95.60
48860;DHT22;34679;51.436;-2.518;2022-07-21T15:47:09;24.90;95.60
48860;DHT22;34679;51.436;-2.518;2022-07-21T15:49:35;24.90;95.30
48860;DHT22;34679;51.436;-2.518;2022-07-21T15:52:02;24.80;95.60
48860;DHT22;34679;51.436;-2.518;2022-07-21T15:54:28;24.80;95.70
48860;DHT22;34679;51.436;-2.518;2022-07-21T15:56:54;24.80;95.50
48860;DHT22;34679;51.436;-2.518;2022-07-21T15:59:20;24.60;95.60
48860;DHT22;34679;51.436;-2.518;2022-07-21T16:02:13;24.60;95.50